createdAt,value
2023-05-10T00:00:01.653Z,100952.94
2023-05-10T00:02:28.289Z,100946.03
2023-05-10T00:04:54.791Z,100944.28
2023-05-10T00:07:21.163Z,100945.97
2023-05-10T00:09:47.609Z,100939.13
2023-05-10T00:12:14.127Z,100944.34
2023-05-10T00:14:40.510Z,100941.69
2023-05-10T00:17:06.897Z,100942.56
2023-05-10T00:19:33.477Z,100938.28
2023-05-10T00:21:59.877Z,100940.13
2023-05-10T00:24:26.270Z,100942.69
2023-05-10T00:26:52.645Z,100947.00
2023-05-10T00:29:19.053Z,100937.53
2023-05-10T00:31:45.565Z,100936.59
2023-05-10T00:34:12.033Z,100938.28
2023-05-10T00:36:38.517Z,100932.31
2023-05-10T00:39:04.961Z,100939.97
2023-05-10T00:41:34.757Z,100942.56
2023-05-10T00:44:02.928Z,100942.63
2023-05-10T00:46:29.743Z,100938.28
2023-05-10T00:48:56.399Z,100936.59
2023-05-10T00:51:23.446Z,100938.38
2023-05-10T00:53:50.514Z,100932.38
2023-05-10T00:56:17.425Z,100939.25
2023-05-10T00:58:44.107Z,100944.34
2023-05-10T01:01:10.816Z,100939.19
2023-05-10T01:03:37.561Z,100934.97
2023-05-10T01:06:04.431Z,100942.63
2023-05-10T01:08:30.869Z,100934.03
2023-05-10T01:10:57.821Z,100943.53
2023-05-10T01:13:33.902Z,100941.75
2023-05-10T01:16:03.039Z,100945.28
2023-05-10T01:18:31.668Z,100939.25
2023-05-10T01:21:28.418Z,100945.34
2023-05-10T01:24:18.784Z,100947.91
2023-05-10T01:27:15.732Z,100948.81
2023-05-10T01:30:15.632Z,100944.53
2023-05-10T01:33:01.133Z,100942.09
2023-05-10T01:35:52.749Z,100937.97
2023-05-10T01:38:56.235Z,100939.88
2023-05-10T01:41:50.482Z,100940.69
2023-05-10T01:45:01.115Z,100941.44
2023-05-10T01:47:27.460Z,100944.75
2023-05-10T01:49:56.682Z,100946.38
2023-05-10T01:52:29.813Z,100942.94
2023-05-10T01:55:10.044Z,100939.66
2023-05-10T01:57:40.520Z,100944.00
2023-05-10T02:00:08.815Z,100939.66
2023-05-10T02:02:39.784Z,100943.13
2023-05-10T02:05:07.542Z,100939.88
2023-05-10T02:07:38.011Z,100947.66
2023-05-10T02:10:06.949Z,100944.09
2023-05-10T02:12:36.994Z,100947.47
2023-05-10T02:15:06.638Z,100952.47
2023-05-10T02:17:34.001Z,100941.34
2023-05-10T02:20:02.161Z,100954.94
2023-05-10T02:22:29.524Z,100948.09
2023-05-10T02:24:58.892Z,100950.59
2023-05-10T02:27:28.243Z,100958.41
2023-05-10T02:29:55.565Z,100953.31
2023-05-10T02:32:24.516Z,100963.81
2023-05-10T02:34:52.922Z,100963.88
2023-05-10T02:37:23.661Z,100962.19
2023-05-10T02:39:51.755Z,100959.56
2023-05-10T02:42:20.707Z,100969.03
2023-05-10T02:44:50.805Z,100971.69
2023-05-10T02:47:18.984Z,100974.25
2023-05-10T02:49:45.688Z,100980.31
2023-05-10T02:52:20.241Z,100969.31
2023-05-10T02:54:51.702Z,100974.59
2023-05-10T02:57:35.254Z,100974.72
2023-05-10T03:00:03.959Z,100973.03
2023-05-10T03:02:31.800Z,100971.66
2023-05-10T03:04:58.506Z,100980.28
2023-05-10T03:07:25.091Z,100981.31
2023-05-10T03:09:51.878Z,100980.81
2023-05-10T03:12:55.970Z,100984.38
2023-05-10T03:15:45.693Z,100985.56
2023-05-10T03:18:22.391Z,100973.59
2023-05-10T03:20:51.318Z,100983.06
2023-05-10T03:23:28.373Z,100982.22
2023-05-10T03:25:55.399Z,100986.59
2023-05-10T03:28:22.718Z,100987.38
2023-05-10T03:30:50.520Z,100991.69
2023-05-10T03:33:16.988Z,100995.09
2023-05-10T03:35:45.073Z,100996.94
2023-05-10T03:38:11.465Z,100996.94
2023-05-10T03:40:38.233Z,100998.69
2023-05-10T03:43:05.058Z,101001.22
2023-05-10T03:45:31.909Z,100988.22
2023-05-10T03:47:59.274Z,100990.72
2023-05-10T03:50:26.028Z,100985.50
2023-05-10T03:52:54.560Z,100987.19
2023-05-10T03:55:21.380Z,100993.03
2023-05-10T03:57:50.430Z,100994.72
2023-05-10T04:00:17.469Z,100996.41
2023-05-10T04:02:45.888Z,100996.41
2023-05-10T04:05:12.692Z,100996.34
2023-05-10T04:07:39.094Z,100992.09
2023-05-10T04:10:06.127Z,100998.94
2023-05-10T04:12:32.513Z,100994.59
2023-05-10T04:14:58.860Z,100998.06
2023-05-10T04:17:25.280Z,101003.22
2023-05-10T04:19:54.020Z,101008.50
2023-05-10T04:22:20.445Z,100994.66
2023-05-10T04:24:46.839Z,101000.72
2023-05-10T04:27:13.240Z,100999.81
2023-05-10T04:29:39.669Z,100998.00
2023-05-10T04:32:06.095Z,100999.66
2023-05-10T04:34:34.993Z,101002.13
2023-05-10T04:37:01.586Z,100998.84
2023-05-10T04:39:28.089Z,100997.19
2023-05-10T04:41:54.515Z,101004.88
2023-05-10T04:44:20.907Z,101003.13
2023-05-10T04:46:47.386Z,101008.19
2023-05-10T04:49:14.032Z,101014.16
2023-05-10T04:51:40.504Z,101009.06
2023-05-10T04:54:07.086Z,101013.38
2023-05-10T04:56:33.857Z,101018.50
2023-05-10T04:59:00.442Z,101022.84
2023-05-10T05:01:27.080Z,101023.66
2023-05-10T05:03:54.033Z,101026.22
2023-05-10T05:06:21.888Z,101024.47
2023-05-10T05:08:50.129Z,101025.16
2023-05-10T05:11:16.745Z,101033.81
2023-05-10T05:13:43.150Z,101037.09
2023-05-10T05:16:09.573Z,101030.25
2023-05-10T05:18:35.926Z,101028.34
2023-05-10T05:21:02.381Z,101037.63
2023-05-10T05:23:28.767Z,101035.97
2023-05-10T05:25:55.353Z,101034.03
2023-05-10T05:28:21.908Z,101038.16
2023-05-10T05:30:48.323Z,101039.06
2023-05-10T05:33:16.378Z,101048.66
2023-05-10T05:35:45.668Z,101046.94
2023-05-10T05:38:12.279Z,101052.78
2023-05-10T05:40:38.764Z,101053.47
2023-05-10T05:43:05.157Z,101048.41
2023-05-10T05:45:31.810Z,101051.69
2023-05-10T05:47:58.265Z,101048.22
2023-05-10T05:50:24.742Z,101054.41
2023-05-10T05:52:51.285Z,101058.63
2023-05-10T05:55:18.760Z,101068.94
2023-05-10T05:57:45.409Z,101061.34
2023-05-10T06:00:12.207Z,101058.81
2023-05-10T06:02:38.675Z,101069.13
2023-05-10T06:05:05.594Z,101071.78
2023-05-10T06:07:31.991Z,101075.44
2023-05-10T06:09:58.554Z,101082.34
2023-05-10T06:12:24.925Z,101085.03
2023-05-10T06:14:51.414Z,101081.66
2023-05-10T06:17:17.830Z,101081.00
2023-05-10T06:19:44.276Z,101085.41
2023-05-10T06:22:10.932Z,101088.06
2023-05-10T06:24:37.288Z,101096.53
2023-05-10T06:27:05.053Z,101097.25
2023-05-10T06:29:31.847Z,101102.28
2023-05-10T06:31:58.345Z,101087.47
2023-05-10T06:34:25.098Z,101090.53
2023-05-10T06:36:51.479Z,101086.94
2023-05-10T06:39:18.071Z,101085.06
2023-05-10T06:41:44.491Z,101092.69
2023-05-10T06:44:10.878Z,101090.22
2023-05-10T06:46:37.425Z,101100.78
2023-05-10T06:49:04.348Z,101100.78
2023-05-10T06:51:30.773Z,101102.28
2023-05-10T06:53:57.246Z,101105.50
2023-05-10T06:56:23.855Z,101109.72
2023-05-10T06:58:50.346Z,101109.84
2023-05-10T07:01:16.940Z,101115.06
2023-05-10T07:03:43.433Z,101111.47
2023-05-10T07:06:21.715Z,101112.28
2023-05-10T07:08:56.703Z,101111.97
2023-05-10T07:11:23.314Z,101116.31
2023-05-10T07:13:49.694Z,101127.63
2023-05-10T07:16:16.233Z,101126.78
2023-05-10T07:18:42.650Z,101125.00
2023-05-10T07:21:09.610Z,101121.25
2023-05-10T07:23:36.203Z,101124.44
2023-05-10T07:26:03.246Z,101128.69
2023-05-10T07:28:29.937Z,101129.66
2023-05-10T07:30:56.605Z,101137.22
2023-05-10T07:33:23.131Z,101138.16
2023-05-10T07:35:50.718Z,101144.34
2023-05-10T07:38:18.367Z,101145.97
2023-05-10T07:40:44.859Z,101149.97
2023-05-10T07:43:11.249Z,101151.41
2023-05-10T07:45:37.753Z,101151.16
2023-05-10T07:48:04.259Z,101151.69
2023-05-10T07:50:30.766Z,101158.13
2023-05-10T07:52:57.541Z,101162.00
2023-05-10T07:55:24.097Z,101161.09
2023-05-10T07:57:50.657Z,101163.38
2023-05-10T08:00:21.398Z,101160.66
2023-05-10T08:02:48.483Z,101166.56
2023-05-10T08:05:15.679Z,101169.94
2023-05-10T08:07:43.347Z,101177.91
2023-05-10T08:10:11.925Z,101177.16
2023-05-10T08:12:39.285Z,101180.69
2023-05-10T08:15:06.477Z,101179.22
2023-05-10T08:17:33.509Z,101181.78
2023-05-10T08:19:59.931Z,101183.41
2023-05-10T08:22:27.014Z,101180.91
2023-05-10T08:24:53.486Z,101190.25
2023-05-10T08:27:19.933Z,101182.78
2023-05-10T08:29:50.108Z,101188.50
2023-05-10T08:32:16.731Z,101184.97
2023-05-10T08:34:43.227Z,101192.38
2023-05-10T08:37:09.738Z,101195.03
2023-05-10T08:39:36.835Z,101204.84
2023-05-10T08:42:05.719Z,101206.44
2023-05-10T08:44:33.593Z,101210.38
2023-05-10T08:47:03.429Z,101206.91
2023-05-10T08:49:32.554Z,101213.28
2023-05-10T08:52:04.099Z,101223.44
2023-05-10T08:54:32.400Z,101220.03
2023-05-10T08:56:59.143Z,101222.13
2023-05-10T08:59:25.902Z,101222.66
2023-05-10T09:01:54.546Z,101220.88
2023-05-10T09:04:21.966Z,101230.34
2023-05-10T09:06:48.908Z,101227.19
2023-05-10T09:09:17.013Z,101218.66
2023-05-10T09:11:44.348Z,101216.59
2023-05-10T09:14:11.228Z,101226.50
2023-05-10T09:16:37.760Z,101222.81
2023-05-10T09:19:04.621Z,101223.28
2023-05-10T09:21:32.450Z,101224.31
2023-05-10T09:24:03.985Z,101232.41
2023-05-10T09:26:30.610Z,101225.94
2023-05-10T09:28:59.432Z,101235.97
2023-05-10T09:31:45.726Z,101237.28
2023-05-10T09:34:12.137Z,101235.97
2023-05-10T09:36:51.629Z,101234.34
2023-05-10T09:39:18.927Z,101236.16
2023-05-10T09:41:45.365Z,101240.19
2023-05-10T09:44:11.724Z,101245.06
2023-05-10T09:46:38.321Z,101248.72
2023-05-10T09:49:06.472Z,101247.75
2023-05-10T09:51:35.066Z,101250.34
2023-05-10T09:54:16.885Z,101251.69
2023-05-10T09:56:44.022Z,101248.75
2023-05-10T09:59:12.489Z,101261.03
2023-05-10T10:01:39.906Z,101258.41
2023-05-10T10:04:08.583Z,101263.44
2023-05-10T10:06:41.385Z,101265.34
2023-05-10T10:09:08.525Z,101261.41
2023-05-10T10:11:39.736Z,101264.53
2023-05-10T10:14:06.555Z,101266.28
2023-05-10T10:16:33.687Z,101266.88
2023-05-10T10:19:00.365Z,101277.38
2023-05-10T10:21:27.773Z,101279.53
2023-05-10T10:23:54.190Z,101275.13
2023-05-10T10:26:22.028Z,101277.47
2023-05-10T10:29:23.583Z,101266.13
2023-05-10T10:31:54.614Z,101279.59
2023-05-10T10:34:28.148Z,101277.25
2023-05-10T10:36:56.376Z,101277.31
2023-05-10T10:39:25.978Z,101281.91
2023-05-10T10:41:55.240Z,101284.03
2023-05-10T10:44:37.789Z,101280.97
2023-05-10T10:47:15.247Z,101283.22
2023-05-10T10:49:45.005Z,101277.91
2023-05-10T10:52:17.347Z,101279.44
2023-05-10T10:54:54.652Z,101280.75
2023-05-10T10:57:22.686Z,101281.03
2023-05-10T10:59:49.840Z,101280.81
2023-05-10T11:02:46.752Z,101279.56
2023-05-10T11:05:28.545Z,101282.56
2023-05-10T11:07:56.316Z,101284.75
2023-05-10T11:10:24.146Z,101274.72
2023-05-10T11:13:04.298Z,101282.72
2023-05-10T11:15:32.798Z,101287.09
2023-05-10T11:18:00.125Z,101289.34
2023-05-10T11:20:34.418Z,101289.81
2023-05-10T11:23:13.916Z,101285.41
2023-05-10T11:25:47.581Z,101290.19
2023-05-10T11:28:14.159Z,101291.25
2023-05-10T11:30:42.061Z,101283.44
2023-05-10T11:33:09.885Z,101291.25
2023-05-10T11:35:43.194Z,101285.16
2023-05-10T11:38:11.921Z,101282.97
2023-05-10T11:40:39.548Z,101294.75
2023-05-10T11:43:09.428Z,101294.69
2023-05-10T11:45:37.031Z,101282.97
2023-05-10T11:48:03.908Z,101286.50
2023-05-10T11:50:30.645Z,101283.72
2023-05-10T11:52:58.137Z,101288.09
2023-05-10T11:55:27.501Z,101288.63
2023-05-10T11:58:02.517Z,101294.53
2023-05-10T12:00:29.813Z,101292.00
2023-05-10T12:02:56.589Z,101295.47
2023-05-10T12:05:23.659Z,101302.56
2023-05-10T12:07:50.090Z,101301.38
2023-05-10T12:10:18.302Z,101304.50
2023-05-10T12:12:46.858Z,101306.00
2023-05-10T12:15:19.674Z,101302.38
2023-05-10T12:17:47.353Z,101297.81
2023-05-10T12:20:16.458Z,101301.97
2023-05-10T12:22:55.552Z,101290.53
2023-05-10T12:25:24.099Z,101304.34
2023-05-10T12:27:56.029Z,101308.31
2023-05-10T12:30:28.396Z,101300.47
2023-05-10T12:32:59.978Z,101301.16
2023-05-10T12:35:26.823Z,101297.81
2023-05-10T12:37:53.202Z,101304.53
2023-05-10T12:40:19.779Z,101304.47
2023-05-10T12:42:46.327Z,101301.56
2023-05-10T12:45:13.169Z,101292.19
2023-05-10T12:47:42.212Z,101296.09
2023-05-10T12:50:10.652Z,101297.66
2023-05-10T12:52:37.090Z,101305.19
2023-05-10T12:55:04.117Z,101304.25
2023-05-10T12:57:30.695Z,101305.44
2023-05-10T12:59:57.121Z,101309.28
2023-05-10T13:02:24.085Z,101307.59
2023-05-10T13:04:51.205Z,101308.06
2023-05-10T13:07:17.776Z,101322.34
2023-05-10T13:09:44.461Z,101320.41
2023-05-10T13:12:10.916Z,101313.31
2023-05-10T13:14:37.341Z,101326.28
2023-05-10T13:17:03.799Z,101329.13
2023-05-10T13:19:30.545Z,101338.81
2023-05-10T13:21:57.029Z,101332.00
2023-05-10T13:24:23.781Z,101343.53
2023-05-10T13:26:50.338Z,101345.50
2023-05-10T13:29:18.892Z,101346.56
2023-05-10T13:31:45.323Z,101352.59
2023-05-10T13:34:12.053Z,101361.00
2023-05-10T13:36:39.081Z,101371.31
2023-05-10T13:39:06.284Z,101373.97
2023-05-10T13:41:32.822Z,101374.38
2023-05-10T13:43:59.236Z,101377.03
2023-05-10T13:46:25.686Z,101375.69
2023-05-10T13:48:52.106Z,101368.06
2023-05-10T13:51:18.633Z,101373.38
2023-05-10T13:53:45.016Z,101381.00
2023-05-10T13:56:11.419Z,101372.94
2023-05-10T13:58:37.983Z,101366.47
2023-05-10T14:01:05.785Z,101368.34
2023-05-10T14:03:32.308Z,101371.72
2023-05-10T14:05:58.976Z,101368.28
2023-05-10T14:08:25.400Z,101371.38
2023-05-10T14:10:53.218Z,101370.53
2023-05-10T14:13:19.632Z,101373.69
2023-05-10T14:15:46.047Z,101378.34
2023-05-10T14:18:12.481Z,101375.56
2023-05-10T14:20:38.878Z,101379.25
2023-05-10T14:23:05.289Z,101375.41
2023-05-10T14:25:31.895Z,101380.59
2023-05-10T14:27:58.263Z,101380.78
2023-05-10T14:30:24.657Z,101379.31
2023-05-10T14:32:51.198Z,101379.25
2023-05-10T14:35:19.392Z,101377.63
2023-05-10T14:37:46.428Z,101375.78
2023-05-10T14:40:13.332Z,101380.88
2023-05-10T14:42:39.720Z,101381.22
2023-05-10T14:45:06.565Z,101376.44
2023-05-10T14:47:33.166Z,101376.25
2023-05-10T14:49:59.588Z,101370.91
2023-05-10T14:52:26.664Z,101367.59
2023-05-10T14:54:53.137Z,101371.88
2023-05-10T14:57:19.485Z,101366.56
2023-05-10T14:59:45.848Z,101368.47
2023-05-10T15:02:13.610Z,101375.81
2023-05-10T15:04:40.361Z,101375.34
2023-05-10T15:07:07.127Z,101370.81
2023-05-10T15:09:33.523Z,101380.88
2023-05-10T15:11:59.869Z,101379.69
2023-05-10T15:14:26.210Z,101381.38
2023-05-10T15:16:52.615Z,101379.75
2023-05-10T15:19:18.997Z,101377.03
2023-05-10T15:21:45.984Z,101370.28
2023-05-10T15:24:12.432Z,101373.97
2023-05-10T15:26:38.836Z,101377.19
2023-05-10T15:29:05.200Z,101379.16
2023-05-10T15:31:31.973Z,101369.13
2023-05-10T15:34:01.789Z,101374.00
2023-05-10T15:36:28.277Z,101375.22
2023-05-10T15:38:55.129Z,101378.38
2023-05-10T15:41:21.820Z,101385.25
2023-05-10T15:43:48.207Z,101376.25
2023-05-10T15:46:14.703Z,101380.66
2023-05-10T15:48:41.186Z,101373.03
2023-05-10T15:51:07.652Z,101391.16
2023-05-10T15:53:34.094Z,101386.16
2023-05-10T15:56:00.589Z,101387.53
2023-05-10T15:58:27.034Z,101391.13
2023-05-10T16:00:53.513Z,101395.63
2023-05-10T16:03:19.912Z,101395.56
2023-05-10T16:05:46.615Z,101396.16
2023-05-10T16:08:13.225Z,101405.44
2023-05-10T16:10:39.842Z,101411.69
2023-05-10T16:13:06.293Z,101411.31
2023-05-10T16:15:32.914Z,101406.25
2023-05-10T16:17:59.880Z,101410.94
2023-05-10T16:20:26.961Z,101404.78
2023-05-10T16:22:53.414Z,101405.16
2023-05-10T16:25:20.120Z,101407.38
2023-05-10T16:27:46.763Z,101406.91
2023-05-10T16:30:13.340Z,101410.41
2023-05-10T16:32:39.752Z,101412.22
2023-05-10T16:35:07.037Z,101412.53
2023-05-10T16:37:33.466Z,101415.78
2023-05-10T16:39:59.823Z,101411.81
2023-05-10T16:42:28.133Z,101410.28
2023-05-10T16:44:54.895Z,101412.22
2023-05-10T16:47:21.274Z,101412.59
2023-05-10T16:49:47.674Z,101416.53
2023-05-10T16:52:14.071Z,101411.59
2023-05-10T16:54:40.446Z,101413.66
2023-05-10T16:57:07.367Z,101421.38
2023-05-10T16:59:33.971Z,101413.34
2023-05-10T17:02:00.569Z,101416.06
2023-05-10T17:04:27.000Z,101413.97
2023-05-10T17:06:53.339Z,101410.63
2023-05-10T17:09:20.685Z,101412.84
2023-05-10T17:11:47.360Z,101416.38
2023-05-10T17:14:13.864Z,101417.00
2023-05-10T17:16:40.306Z,101420.75
2023-05-10T17:19:06.964Z,101422.28
2023-05-10T17:21:33.398Z,101423.56
2023-05-10T17:24:05.844Z,101425.25
2023-05-10T17:26:32.324Z,101426.47
2023-05-10T17:28:58.720Z,101429.31
2023-05-10T17:31:25.188Z,101434.34
2023-05-10T17:33:51.693Z,101447.88
2023-05-10T17:36:18.157Z,101439.75
2023-05-10T17:38:44.695Z,101443.25
2023-05-10T17:41:11.103Z,101447.38
2023-05-10T17:43:37.496Z,101453.16
2023-05-10T17:46:04.137Z,101450.88
2023-05-10T17:48:30.855Z,101450.66
2023-05-10T17:50:57.381Z,101455.63
2023-05-10T17:53:24.430Z,101458.22
2023-05-10T17:55:52.084Z,101459.06
2023-05-10T17:58:18.496Z,101470.34
2023-05-10T18:00:44.894Z,101470.81
2023-05-10T18:03:11.603Z,101460.34
2023-05-10T18:05:38.993Z,101456.47
2023-05-10T18:08:05.962Z,101465.78
2023-05-10T18:10:32.479Z,101465.06
2023-05-10T18:12:58.982Z,101469.91
2023-05-10T18:15:26.597Z,101463.06
2023-05-10T18:17:53.217Z,101460.53
2023-05-10T18:20:22.654Z,101465.81
2023-05-10T18:22:49.165Z,101468.50
2023-05-10T18:25:15.766Z,101470.28
2023-05-10T18:27:42.360Z,101469.44
2023-05-10T18:30:10.107Z,101473.69
2023-05-10T18:32:38.268Z,101475.59
2023-05-10T18:35:05.110Z,101473.53
2023-05-10T18:37:31.855Z,101476.00
2023-05-10T18:39:58.268Z,101474.03
2023-05-10T18:42:24.737Z,101468.31
2023-05-10T18:44:51.116Z,101472.44
2023-05-10T18:47:17.636Z,101475.53
2023-05-10T18:49:46.101Z,101474.63
2023-05-10T18:52:12.962Z,101485.13
2023-05-10T18:54:39.310Z,101480.69
2023-05-10T18:57:06.070Z,101486.72
2023-05-10T18:59:32.656Z,101482.31
2023-05-10T19:01:59.279Z,101490.22
2023-05-10T19:04:25.838Z,101492.97
2023-05-10T19:06:52.856Z,101488.03
2023-05-10T19:09:20.202Z,101494.97
2023-05-10T19:11:46.722Z,101491.88
2023-05-10T19:14:13.111Z,101492.22
2023-05-10T19:16:41.793Z,101489.91
2023-05-10T19:19:09.543Z,101496.94
2023-05-10T19:21:36.140Z,101495.53
2023-05-10T19:24:02.724Z,101499.16
2023-05-10T19:26:29.436Z,101507.00
2023-05-10T19:28:57.461Z,101498.44
2023-05-10T19:31:24.614Z,101505.66
2023-05-10T19:33:51.088Z,101507.34
2023-05-10T19:36:17.554Z,101508.31
2023-05-10T19:38:44.025Z,101511.03
2023-05-10T19:41:11.421Z,101517.22
2023-05-10T19:43:38.969Z,101519.00
2023-05-10T19:46:05.876Z,101517.31
2023-05-10T19:48:32.523Z,101520.63
2023-05-10T19:51:03.068Z,101525.91
2023-05-10T19:53:29.819Z,101525.19
2023-05-10T19:55:56.422Z,101517.69
2023-05-10T19:58:23.636Z,101517.16
2023-05-10T20:00:50.190Z,101518.31
2023-05-10T20:03:16.655Z,101523.53
2023-05-10T20:05:43.058Z,101532.28
2023-05-10T20:08:09.412Z,101529.84
2023-05-10T20:10:35.796Z,101537.03
2023-05-10T20:13:02.168Z,101526.88
2023-05-10T20:15:29.150Z,101528.75
2023-05-10T20:17:55.829Z,101535.78
2023-05-10T20:20:22.699Z,101536.81
2023-05-10T20:22:49.756Z,101532.72
2023-05-10T20:25:17.388Z,101535.34
2023-05-10T20:27:43.740Z,101537.94
2023-05-10T20:30:10.692Z,101539.63
2023-05-10T20:32:38.048Z,101538.72
2023-05-10T20:35:05.568Z,101538.78
2023-05-10T20:37:32.067Z,101547.38
2023-05-10T20:39:58.703Z,101549.03
2023-05-10T20:42:25.100Z,101545.69
2023-05-10T20:44:51.636Z,101545.69
2023-05-10T20:47:18.167Z,101552.59
2023-05-10T20:49:44.564Z,101552.59
2023-05-10T20:52:11.033Z,101553.50
2023-05-10T20:54:37.409Z,101544.91
2023-05-10T20:57:03.781Z,101544.00
2023-05-10T20:59:30.577Z,101547.44
2023-05-10T21:01:57.660Z,101549.97
2023-05-10T21:04:25.780Z,101553.38
2023-05-10T21:06:53.002Z,101550.84
2023-05-10T21:09:19.550Z,101546.53
2023-05-10T21:11:46.094Z,101544.91
2023-05-10T21:14:12.498Z,101544.00
2023-05-10T21:16:38.991Z,101549.16
2023-05-10T21:19:07.159Z,101545.69
2023-05-10T21:21:33.882Z,101541.53
2023-05-10T21:24:00.249Z,101551.94
2023-05-10T21:26:26.697Z,101548.56
2023-05-10T21:28:53.185Z,101547.84
2023-05-10T21:31:19.724Z,101544.38
2023-05-10T21:33:46.117Z,101540.16
2023-05-10T21:36:13.031Z,101536.75
2023-05-10T21:38:39.677Z,101536.00
2023-05-10T21:41:07.746Z,101538.63
2023-05-10T21:43:34.276Z,101530.19
2023-05-10T21:46:01.066Z,101526.84
2023-05-10T21:48:27.450Z,101526.03
2023-05-10T21:50:53.838Z,101534.78
2023-05-10T21:53:20.594Z,101534.97
2023-05-10T21:55:48.153Z,101530.75
2023-05-10T21:58:14.547Z,101538.50
2023-05-10T22:00:40.937Z,101538.56
2023-05-10T22:03:07.411Z,101541.34
2023-05-10T22:05:33.881Z,101535.34
2023-05-10T22:08:00.273Z,101537.13
2023-05-10T22:10:26.678Z,101544.16
2023-05-10T22:12:53.111Z,101546.03
2023-05-10T22:15:19.781Z,101538.41
2023-05-10T22:17:46.263Z,101559.88
2023-05-10T22:20:12.854Z,101556.38
2023-05-10T22:22:39.219Z,101555.47
2023-05-10T22:25:07.424Z,101561.53
2023-05-10T22:27:34.395Z,101551.25
2023-05-10T22:30:01.445Z,101544.41
2023-05-10T22:32:28.285Z,101549.63
2023-05-10T22:34:54.920Z,101551.50
2023-05-10T22:37:21.373Z,101552.50
2023-05-10T22:39:48.620Z,101556.13
2023-05-10T22:42:15.611Z,101550.78
2023-05-10T22:44:43.314Z,101551.06
2023-05-10T22:47:09.787Z,101552.78
2023-05-10T22:49:36.466Z,101550.06
2023-05-10T22:52:02.982Z,101547.50
2023-05-10T22:54:29.430Z,101554.34
2023-05-10T22:56:56.602Z,101555.25
2023-05-10T22:59:23.676Z,101555.28
2023-05-10T23:01:50.711Z,101552.81
2023-05-10T23:04:17.295Z,101558.94
2023-05-10T23:06:43.776Z,101561.63
2023-05-10T23:09:10.235Z,101561.56
2023-05-10T23:11:36.712Z,101559.09
2023-05-10T23:14:03.500Z,101564.31
2023-05-10T23:16:30.763Z,101560.09
2023-05-10T23:18:57.309Z,101558.50
2023-05-10T23:21:25.243Z,101570.75
2023-05-10T23:23:52.500Z,101570.84
2023-05-10T23:26:19.056Z,101573.38
2023-05-10T23:28:45.440Z,101573.31
2023-05-10T23:31:11.823Z,101567.19
2023-05-10T23:33:38.245Z,101573.25
2023-05-10T23:36:04.846Z,101572.56
2023-05-10T23:38:31.669Z,101574.31
2023-05-10T23:40:58.107Z,101567.34
2023-05-10T23:43:25.267Z,101576.84
2023-05-10T23:45:56.016Z,101569.00
2023-05-10T23:48:22.747Z,101566.31
2023-05-10T23:50:49.435Z,101578.38
2023-05-10T23:53:16.612Z,101574.91
2023-05-10T23:55:43.170Z,101570.75
2023-05-10T23:58:09.667Z,101568.25
